Time;durP1;ratioP1;P1;durP2;ratioP2;P2;SDS_P1;SDS_P2;PMS_P1;PMS_P2;Temp;Humidity;BMP_temperature;BMP_pressure;BME280_temperature;BME280_humidity;BME280_pressure;Samples;Min_cycle;Max_cycle;Signal;HPM_P1;HPM_P2
2022/11/21 00:01:58;;;;;;;13.45;4.88;;;7.10;91.00;;;;;;5038271;28;20033;-75
2022/11/21 00:04:23;;;;;;;14.90;5.25;;;7.10;90.90;;;;;;5040117;28;20116;-74
2022/11/21 00:06:52;;;;;;;12.65;4.75;;;7.10;90.80;;;;;;5055321;28;20124;-74
2022/11/21 00:09:17;;;;;;;17.60;5.25;;;7.10;90.50;;;;;;5056088;28;20037;-74
2022/11/21 00:11:43;;;;;;;14.70;4.90;;;7.10;90.30;;;;;;5056928;28;20047;-73
2022/11/21 00:14:09;;;;;;;10.32;4.35;;;7.10;90.30;;;;;;5043795;28;20049;-77
2022/11/21 00:16:34;;;;;;;10.82;4.35;;;7.10;90.10;;;;;;5045575;28;20532;-74
2022/11/21 00:19:00;;;;;;;14.75;5.32;;;7.10;90.00;;;;;;5047321;28;20392;-77
2022/11/21 00:21:25;;;;;;;11.40;3.92;;;7.10;89.90;;;;;;5042813;28;20546;-74
2022/11/21 00:23:51;;;;;;;13.30;4.90;;;7.10;89.90;;;;;;5046285;28;20040;-75
2022/11/21 00:26:17;;;;;;;11.23;4.45;;;7.10;90.00;;;;;;5044503;28;20057;-74
2022/11/21 00:28:43;;;;;;;12.25;4.18;;;7.10;89.90;;;;;;5043010;28;20405;-74
2022/11/21 00:31:21;;;;;;;11.57;4.43;;;7.10;89.80;;;;;;5043772;28;20052;-74
2022/11/21 00:33:47;;;;;;;10.50;4.75;;;7.10;89.90;;;;;;5041767;28;20493;-74
2022/11/21 00:36:12;;;;;;;12.40;3.72;;;7.00;89.80;;;;;;5044303;28;20091;-74
2022/11/21 00:38:38;;;;;;;11.20;4.90;;;7.00;89.90;;;;;;5044561;28;20484;-75
2022/11/21 00:41:05;;;;;;;11.32;4.63;;;6.90;89.90;;;;;;5044336;28;20263;-74
2022/11/21 00:43:31;;;;;;;22.88;5.25;;;6.90;90.00;;;;;;5044943;28;20036;-73
2022/11/21 00:46:00;;;;;;;11.98;4.13;;;6.90;90.00;;;;;;5059317;28;20029;-74
2022/11/21 00:48:25;;;;;;;11.65;4.57;;;6.80;90.10;;;;;;5043293;28;20037;-72
2022/11/21 00:50:51;;;;;;;12.00;4.60;;;6.80;90.30;;;;;;5044365;28;20331;-74
2022/11/21 00:53:16;;;;;;;13.07;5.20;;;6.80;90.40;;;;;;5043043;28;20127;-75
2022/11/21 00:55:42;;;;;;;10.88;5.03;;;6.80;90.50;;;;;;5043558;28;20057;-72
2022/11/21 00:58:07;;;;;;;15.82;5.82;;;6.80;90.60;;;;;;5043716;28;20128;-75
2022/11/21 01:00:33;;;;;;;13.45;5.68;;;6.80;90.50;;;;;;5046059;28;20063;-73
2022/11/21 01:03:00;;;;;;;13.02;6.18;;;6.80;90.40;;;;;;5047028;28;20087;-74
2022/11/21 01:05:25;;;;;;;11.98;7.15;;;6.70;90.30;;;;;;5041988;28;20382;-75
2022/11/21 01:07:51;;;;;;;16.65;7.60;;;6.60;90.40;;;;;;5042738;28;20052;-73
2022/11/21 01:10:17;;;;;;;13.00;8.10;;;6.60;90.50;;;;;;5044964;28;20024;-74
2022/11/21 01:12:43;;;;;;;13.50;8.13;;;6.50;90.50;;;;;;5042842;28;20049;-75
2022/11/21 01:15:09;;;;;;;14.40;9.68;;;6.50;90.60;;;;;;5059304;28;20049;-73
2022/11/21 01:17:35;;;;;;;16.45;9.13;;;6.50;90.70;;;;;;5042989;28;20216;-76
2022/11/21 01:20:00;;;;;;;15.30;8.23;;;6.40;90.60;;;;;;5045757;28;20029;-75
2022/11/21 01:22:26;;;;;;;13.18;6.78;;;6.30;90.70;;;;;;5042797;28;20817;-75
2022/11/21 01:24:51;;;;;;;12.45;5.80;;;6.30;90.80;;;;;;5043792;28;20466;-75
2022/11/21 01:27:17;;;;;;;10.85;5.25;;;6.30;90.90;;;;;;5041528;28;20045;-74
2022/11/21 01:29:43;;;;;;;15.60;5.75;;;6.20;91.00;;;;;;5045673;28;20041;-74
2022/11/21 01:32:08;;;;;;;9.45;4.55;;;6.30;91.00;;;;;;5043106;28;20063;-77
2022/11/21 01:34:34;;;;;;;13.43;4.97;;;6.30;90.90;;;;;;5045697;28;20045;-75
2022/11/21 01:37:00;;;;;;;9.82;4.35;;;6.30;90.90;;;;;;5043261;28;20421;-73
2022/11/21 01:39:25;;;;;;;13.82;4.10;;;6.40;90.70;;;;;;5043025;28;20048;-73
2022/11/21 01:41:51;;;;;;;12.30;4.10;;;6.40;90.60;;;;;;5043890;28;20131;-74
2022/11/21 01:44:25;;;;;;;10.30;4.03;;;6.50;90.40;;;;;;5043292;28;20040;-74
2022/11/21 01:46:51;;;;;;;10.63;4.10;;;6.50;90.20;;;;;;5038774;28;20623;-74
2022/11/21 01:49:20;;;;;;;9.85;4.60;;;6.60;89.90;;;;;;5043744;28;20025;-73
2022/11/21 01:51:52;;;;;;;13.18;3.55;;;6.60;89.50;;;;;;5057252;28;20037;-72
2022/11/21 01:54:36;;;;;;;15.20;3.70;;;6.60;89.00;;;;;;5041842;28;20099;-72
2022/11/21 01:57:13;;;;;;;7.57;3.45;;;6.60;88.90;;;;;;5043971;28;20550;-75
2022/11/21 02:00:11;;;;;;;8.38;3.50;;;6.60;88.70;;;;;;5055526;28;20426;-74
2022/11/21 02:02:41;;;;;;;12.73;3.38;;;6.50;88.70;;;;;;5040253;28;20061;-72
2022/11/21 02:05:12;;;;;;;10.50;3.95;;;6.50;88.60;;;;;;5041918;28;20068;-76
2022/11/21 02:07:41;;;;;;;9.40;3.58;;;6.40;88.70;;;;;;5042028;28;20192;-73
2022/11/21 02:10:09;;;;;;;14.65;5.30;;;6.40;88.70;;;;;;5042039;28;20037;-74
2022/11/21 02:12:44;;;;;;;12.32;4.30;;;6.30;88.90;;;;;;5040057;28;20032;-75
2022/11/21 02:15:11;;;;;;;11.13;4.00;;;6.20;89.00;;;;;;5044101;28;20132;-74
2022/11/21 02:17:36;;;;;;;13.18;5.05;;;6.20;89.20;;;;;;5042940;28;20087;-73
2022/11/21 02:20:08;;;;;;;14.52;4.75;;;6.10;89.40;;;;;;5040737;28;20406;-75
2022/11/21 02:22:37;;;;;;;12.35;4.68;;;6.10;89.50;;;;;;5041236;28;20052;-73
2022/11/21 02:25:17;;;;;;;14.63;5.03;;;6.10;89.50;;;;;;5041627;28;20037;-74
2022/11/21 02:27:44;;;;;;;9.05;4.15;;;6.10;89.70;;;;;;5044649;28;20040;-75
2022/11/21 02:30:11;;;;;;;13.70;5.68;;;6.10;89.80;;;;;;5041458;28;20472;-74
2022/11/21 02:32:45;;;;;;;12.27;4.43;;;6.00;89.90;;;;;;5040345;28;20104;-73
2022/11/21 02:35:12;;;;;;;14.75;5.32;;;6.00;89.90;;;;;;5044994;28;20049;-75
2022/11/21 02:37:38;;;;;;;12.75;4.70;;;6.00;90.00;;;;;;5040095;28;20037;-72
2022/11/21 02:40:24;;;;;;;14.80;4.68;;;5.90;90.00;;;;;;5041467;28;20036;-73
2022/11/21 02:42:50;;;;;;;11.25;4.25;;;5.80;90.00;;;;;;5040496;28;20472;-74
2022/11/21 02:45:24;;;;;;;10.63;3.95;;;5.70;90.10;;;;;;5041294;28;20052;-75
2022/11/21 02:47:53;;;;;;;10.27;3.53;;;5.70;90.20;;;;;;5039962;28;20526;-76
2022/11/21 02:50:25;;;;;;;12.75;3.85;;;5.70;90.30;;;;;;5040162;28;20028;-75
2022/11/21 02:52:51;;;;;;;10.98;3.78;;;5.60;90.60;;;;;;5041836;28;20037;-75
2022/11/21 02:55:16;;;;;;;10.73;3.47;;;5.60;90.70;;;;;;5042434;28;20469;-73
2022/11/21 02:57:42;;;;;;;8.27;3.13;;;5.60;90.80;;;;;;5041303;28;20063;-74
2022/11/21 03:00:10;;;;;;;11.38;4.00;;;5.70;91.00;;;;;;5044296;28;20025;-73
2022/11/21 03:02:36;;;;;;;9.30;3.53;;;5.70;91.20;;;;;;5041679;28;20025;-73
2022/11/21 03:05:03;;;;;;;8.07;3.40;;;5.70;91.30;;;;;;5039839;28;20114;-74
2022/11/21 03:07:28;;;;;;;13.30;4.00;;;5.80;91.30;;;;;;5045622;28;20108;-74
2022/11/21 03:09:54;;;;;;;10.38;3.83;;;5.80;91.30;;;;;;5057804;28;20057;-75
2022/11/21 03:12:20;;;;;;;9.68;3.05;;;5.90;91.30;;;;;;5061022;28;20127;-76
2022/11/21 03:14:45;;;;;;;9.82;3.38;;;5.90;91.20;;;;;;5058093;28;20051;-75
2022/11/21 03:17:11;;;;;;;10.45;3.42;;;5.90;91.20;;;;;;5040445;28;20519;-74
2022/11/21 03:19:36;;;;;;;11.73;4.43;;;5.90;91.10;;;;;;5041346;28;20095;-74
2022/11/21 03:22:02;;;;;;;12.05;3.85;;;5.90;91.10;;;;;;5040134;28;20076;-75
2022/11/21 03:24:28;;;;;;;13.20;5.07;;;5.80;91.10;;;;;;5039458;28;20088;-73
2022/11/21 03:26:53;;;;;;;7.80;3.10;;;5.80;91.10;;;;;;5041764;28;20130;-75
2022/11/21 03:29:19;;;;;;;9.45;3.20;;;5.90;91.20;;;;;;5041605;28;20029;-74
2022/11/21 03:31:45;;;;;;;13.25;4.60;;;5.90;91.10;;;;;;5039904;28;20063;-74
2022/11/21 03:34:10;;;;;;;9.30;3.78;;;5.90;91.00;;;;;;5041254;28;20032;-73
2022/11/21 03:36:36;;;;;;;9.18;3.55;;;5.80;91.00;;;;;;5040706;28;20021;-76
2022/11/21 03:39:02;;;;;;;10.07;3.50;;;5.90;90.80;;;;;;5057304;28;20536;-74
2022/11/21 03:41:28;;;;;;;8.27;4.10;;;5.90;90.70;;;;;;5039435;28;20021;-73
2022/11/21 03:44:04;;;;;;;8.02;3.08;;;5.90;90.40;;;;;;5041901;28;20040;-73
2022/11/21 03:46:32;;;;;;;12.10;3.85;;;5.80;90.40;;;;;;5041704;28;20052;-73
2022/11/21 03:48:58;;;;;;;8.55;3.08;;;5.80;90.40;;;;;;5041479;28;20033;-74
2022/11/21 03:51:25;;;;;;;8.50;3.33;;;5.70;90.30;;;;;;5040056;28;20376;-73
2022/11/21 03:53:50;;;;;;;10.48;3.80;;;5.60;90.10;;;;;;5040224;28;20485;-73
2022/11/21 03:56:16;;;;;;;10.73;3.33;;;5.60;90.20;;;;;;5038355;28;20041;-73
2022/11/21 03:58:42;;;;;;;10.25;3.28;;;5.60;90.30;;;;;;5039816;28;20466;-72
2022/11/21 04:01:08;;;;;;;8.77;3.35;;;5.60;90.40;;;;;;5050687;28;20082;-73
2022/11/21 04:03:34;;;;;;;12.30;3.75;;;5.50;90.40;;;;;;5040432;28;20041;-73
2022/11/21 04:06:00;;;;;;;10.15;3.63;;;5.40;90.50;;;;;;5041734;28;20041;-72
2022/11/21 04:08:26;;;;;;;10.10;3.92;;;5.40;90.60;;;;;;5041162;28;20036;-73
2022/11/21 04:10:53;;;;;;;8.55;3.63;;;5.30;90.60;;;;;;5039807;28;20036;-73
2022/11/21 04:13:20;;;;;;;8.55;4.43;;;5.30;90.80;;;;;;5040883;28;20025;-76
2022/11/21 04:15:46;;;;;;;9.32;3.63;;;5.30;90.80;;;;;;5039610;28;20045;-76
2022/11/21 04:18:12;;;;;;;12.35;4.43;;;5.20;90.90;;;;;;5039693;28;20390;-74
2022/11/21 04:20:38;;;;;;;12.68;4.43;;;5.20;90.90;;;;;;5041291;28;20360;-73
2022/11/21 04:23:04;;;;;;;12.13;3.63;;;5.10;90.90;;;;;;5039801;28;20032;-73
2022/11/21 04:25:31;;;;;;;11.13;3.78;;;5.10;91.00;;;;;;5041769;28;20453;-73
2022/11/21 04:27:57;;;;;;;10.05;3.83;;;5.10;91.10;;;;;;5040731;28;20067;-74
2022/11/21 04:30:24;;;;;;;14.30;3.92;;;5.10;91.10;;;;;;5039786;28;20052;-74
2022/11/21 04:32:50;;;;;;;11.07;4.28;;;5.10;91.10;;;;;;5040630;28;20040;-75
2022/11/21 04:35:16;;;;;;;10.38;4.20;;;5.10;91.10;;;;;;5039749;28;20367;-73
2022/11/21 04:37:42;;;;;;;10.80;3.50;;;5.10;91.20;;;;;;5039079;28;20056;-75
2022/11/21 04:40:08;;;;;;;10.77;3.95;;;5.00;91.20;;;;;;5040870;28;20558;-74
2022/11/21 04:42:34;;;;;;;10.95;4.07;;;5.00;91.20;;;;;;5041193;28;20055;-74
2022/11/21 04:44:59;;;;;;;12.15;4.00;;;5.00;91.20;;;;;;5040155;28;20032;-73
2022/11/21 04:47:25;;;;;;;12.25;4.05;;;4.90;91.10;;;;;;5038898;28;20098;-72
2022/11/21 04:49:51;;;;;;;6.32;3.25;;;5.00;91.20;;;;;;5040922;28;20372;-75
2022/11/21 04:52:16;;;;;;;11.40;3.38;;;5.00;91.10;;;;;;5038974;28;20045;-73
2022/11/21 04:54:42;;;;;;;13.05;3.97;;;4.90;91.10;;;;;;5040380;28;20114;-72
2022/11/21 04:57:08;;;;;;;12.85;3.58;;;4.90;91.20;;;;;;5036435;28;20054;-76
2022/11/21 04:59:33;;;;;;;9.45;3.90;;;4.80;91.20;;;;;;5041464;28;20536;-72
2022/11/21 05:01:59;;;;;;;10.45;4.47;;;4.80;91.20;;;;;;5042942;28;20052;-73
2022/11/21 05:04:25;;;;;;;10.35;4.43;;;4.80;91.20;;;;;;5043343;28;20033;-74
2022/11/21 05:06:50;;;;;;;12.65;4.60;;;4.80;91.30;;;;;;5043797;28;20048;-75
2022/11/21 05:09:16;;;;;;;9.88;3.63;;;4.80;91.30;;;;;;5047459;28;20060;-74
2022/11/21 05:14:26;;;;;;;8.55;4.63;;;4.70;91.40;;;;;;5043489;28;20102;-74
2022/11/21 05:16:52;;;;;;;12.35;4.80;;;4.70;91.40;;;;;;5042696;28;20053;-75
2022/11/21 05:19:17;;;;;;;12.70;4.95;;;4.60;91.40;;;;;;5042055;28;20025;-73
2022/11/21 05:21:43;;;;;;;12.70;5.28;;;4.60;91.40;;;;;;5043284;28;20040;-75
2022/11/21 05:24:09;;;;;;;12.00;4.60;;;4.60;91.60;;;;;;5045869;28;20049;-74
2022/11/21 05:26:34;;;;;;;11.02;4.78;;;4.60;91.50;;;;;;5040868;28;20508;-73
2022/11/21 05:29:00;;;;;;;11.10;5.20;;;4.60;91.50;;;;;;5042533;28;20037;-75
2022/11/21 05:31:26;;;;;;;11.85;4.72;;;4.50;91.60;;;;;;5040730;28;20492;-73
2022/11/21 05:33:51;;;;;;;12.02;5.30;;;4.50;91.60;;;;;;5055750;28;20419;-74
2022/11/21 05:36:17;;;;;;;12.70;4.70;;;4.40;91.70;;;;;;5041021;28;20049;-74
2022/11/21 05:38:43;;;;;;;11.55;4.50;;;4.40;91.70;;;;;;5044523;28;20052;-73
2022/11/21 05:41:08;;;;;;;12.20;5.05;;;4.40;91.80;;;;;;5039078;28;20033;-74
2022/11/21 05:43:46;;;;;;;11.70;4.40;;;4.40;91.80;;;;;;5041704;28;20082;-74
2022/11/21 05:46:14;;;;;;;10.15;4.47;;;4.30;91.90;;;;;;5040709;28;20439;-73
2022/11/21 05:48:40;;;;;;;13.00;5.18;;;4.30;91.90;;;;;;5041183;28;20043;-74
2022/11/21 05:51:06;;;;;;;12.20;5.07;;;4.30;91.90;;;;;;5041055;28;20021;-78
2022/11/21 05:53:33;;;;;;;10.98;4.88;;;4.30;92.00;;;;;;5041697;28;20381;-78
2022/11/21 05:56:06;;;;;;;13.30;5.15;;;4.20;91.90;;;;;;5043068;28;20041;-72
2022/11/21 05:58:33;;;;;;;12.32;6.03;;;4.20;92.00;;;;;;5042800;28;20086;-73
2022/11/21 06:00:59;;;;;;;14.60;7.22;;;4.20;92.00;;;;;;5040018;28;20612;-75
2022/11/21 06:03:26;;;;;;;16.38;6.90;;;4.10;92.00;;;;;;5039801;28;20136;-74
2022/11/21 06:06:07;;;;;;;11.85;5.95;;;4.20;92.00;;;;;;5042654;28;20414;-73
2022/11/21 06:08:39;;;;;;;13.40;5.55;;;4.10;92.00;;;;;;5044962;28;20095;-74
2022/11/21 06:11:06;;;;;;;12.77;5.35;;;4.10;92.00;;;;;;5043085;28;20029;-74
2022/11/21 06:13:32;;;;;;;13.05;5.25;;;4.10;92.00;;;;;;5040313;28;20185;-74
2022/11/21 06:16:00;;;;;;;15.52;5.90;;;4.00;92.10;;;;;;5041134;28;20033;-74
2022/11/21 06:18:28;;;;;;;17.70;6.38;;;4.00;92.10;;;;;;5043435;28;20633;-75
2022/11/21 06:20:59;;;;;;;13.65;6.47;;;4.00;92.20;;;;;;5042205;28;20056;-73
2022/11/21 06:23:24;;;;;;;16.73;8.38;;;4.00;92.30;;;;;;5040111;28;20033;-75
2022/11/21 06:25:57;;;;;;;17.13;9.02;;;4.00;92.30;;;;;;5039734;28;20484;-74
2022/11/21 06:28:22;;;;;;;17.92;8.52;;;4.00;92.40;;;;;;5039412;28;20036;-74
2022/11/21 06:30:50;;;;;;;14.23;7.22;;;3.90;92.40;;;;;;5036401;28;20048;-73
2022/11/21 06:33:16;;;;;;;16.45;6.78;;;3.90;92.40;;;;;;5039837;28;20041;-76
2022/11/21 06:35:42;;;;;;;14.20;5.28;;;3.90;92.40;;;;;;5042145;28;20049;-72
2022/11/21 06:38:08;;;;;;;11.32;5.05;;;3.90;92.50;;;;;;5039945;28;20044;-72
2022/11/21 06:40:34;;;;;;;12.35;5.43;;;3.90;92.50;;;;;;5042117;28;20060;-73
2022/11/21 06:43:00;;;;;;;14.75;5.30;;;3.90;92.40;;;;;;5040799;28;20017;-75
2022/11/21 06:45:26;;;;;;;11.60;5.13;;;3.90;92.50;;;;;;5040539;28;20398;-72
2022/11/21 06:47:51;;;;;;;11.52;4.80;;;3.80;92.50;;;;;;5041714;28;20032;-75
2022/11/21 06:50:17;;;;;;;13.13;5.40;;;3.90;92.60;;;;;;5042161;28;20139;-75
2022/11/21 06:52:42;;;;;;;13.38;5.15;;;3.90;92.60;;;;;;5040926;28;20249;-73
2022/11/21 06:55:09;;;;;;;15.55;6.45;;;3.90;92.60;;;;;;5042956;28;20555;-75
2022/11/21 06:57:35;;;;;;;13.88;5.93;;;3.90;92.70;;;;;;5040013;28;20125;-74
2022/11/21 07:00:01;;;;;;;14.02;5.50;;;3.90;92.70;;;;;;5040452;28;20136;-74
2022/11/21 07:02:27;;;;;;;14.48;5.65;;;3.90;92.70;;;;;;5040104;28;20512;-74
2022/11/21 07:04:52;;;;;;;13.30;5.60;;;3.90;92.70;;;;;;5040621;28;20037;-75
2022/11/21 07:07:18;;;;;;;15.32;5.82;;;4.00;92.70;;;;;;5040181;28;20056;-75
2022/11/21 07:09:46;;;;;;;14.10;5.40;;;4.00;92.70;;;;;;5041258;28;20041;-74
2022/11/21 07:14:56;;;;;;;12.80;5.63;;;4.00;92.60;;;;;;5040887;28;20067;-75
2022/11/21 07:17:21;;;;;;;13.48;5.07;;;4.10;92.70;;;;;;5056691;28;20331;-75
2022/11/21 07:19:47;;;;;;;15.30;4.97;;;4.10;92.70;;;;;;5041144;28;20025;-75
2022/11/21 07:22:13;;;;;;;12.38;5.72;;;4.10;92.60;;;;;;5039824;28;20033;-75
2022/11/21 07:24:38;;;;;;;14.25;5.35;;;4.10;92.60;;;;;;5041308;28;20138;-75
2022/11/21 07:27:04;;;;;;;14.73;5.28;;;4.20;92.60;;;;;;5040892;28;20033;-75
2022/11/21 07:29:29;;;;;;;18.42;5.53;;;4.20;92.50;;;;;;5039362;28;20525;-76
2022/11/21 07:31:55;;;;;;;15.85;5.82;;;4.20;92.40;;;;;;5040009;28;20056;-75
2022/11/21 07:34:21;;;;;;;14.13;5.25;;;4.20;92.40;;;;;;5041329;28;23092;-77
2022/11/21 07:36:46;;;;;;;17.27;5.93;;;4.30;92.40;;;;;;5039816;28;20052;-74
2022/11/21 07:39:12;;;;;;;15.48;5.35;;;4.30;92.30;;;;;;5040116;28;20484;-74
2022/11/21 07:41:37;;;;;;;16.67;6.05;;;4.30;92.30;;;;;;5042202;28;20025;-73
2022/11/21 07:44:03;;;;;;;16.92;5.60;;;4.40;92.20;;;;;;5039977;28;20149;-75
2022/11/21 07:46:29;;;;;;;13.95;5.90;;;4.40;92.20;;;;;;5040753;28;20051;-77
2022/11/21 07:48:54;;;;;;;15.93;6.03;;;4.40;92.20;;;;;;5039822;28;20037;-76
2022/11/21 07:51:20;;;;;;;19.17;5.72;;;4.50;92.10;;;;;;5042128;28;20041;-75
2022/11/21 07:53:46;;;;;;;17.40;5.93;;;4.50;92.10;;;;;;5040623;28;20084;-78
2022/11/21 07:56:11;;;;;;;20.58;6.22;;;4.50;92.00;;;;;;5041431;28;20054;-76
2022/11/21 07:58:37;;;;;;;18.98;6.05;;;4.60;91.90;;;;;;5041662;28;20056;-76
2022/11/21 08:01:04;;;;;;;16.17;5.78;;;4.60;91.90;;;;;;5041887;28;20081;-76
2022/11/21 08:03:31;;;;;;;17.00;5.90;;;4.60;91.90;;;;;;5039138;28;20044;-76
2022/11/21 08:05:59;;;;;;;18.10;6.43;;;4.70;91.90;;;;;;5042751;28;20029;-76
2022/11/21 08:08:25;;;;;;;24.20;8.20;;;4.70;91.80;;;;;;5039510;28;20029;-80
2022/11/21 08:10:50;;;;;;;22.45;7.95;;;4.80;91.70;;;;;;5039263;28;20033;-77
2022/11/21 08:13:16;;;;;;;29.33;6.30;;;4.90;91.60;;;;;;5039207;28;20037;-79
2022/11/21 08:15:42;;;;;;;24.85;7.75;;;4.90;91.50;;;;;;5038746;28;20095;-76
2022/11/21 08:18:20;;;;;;;22.40;7.95;;;5.00;91.50;;;;;;5041517;28;20086;-76
2022/11/21 08:20:46;;;;;;;20.60;7.68;;;5.10;91.40;;;;;;5039821;28;20041;-77
2022/11/21 08:23:12;;;;;;;19.88;7.05;;;5.10;91.40;;;;;;5045661;28;20041;-75
2022/11/21 08:25:39;;;;;;;18.17;7.35;;;5.20;91.30;;;;;;5048120;28;20512;-76
2022/11/21 08:28:05;;;;;;;21.52;7.00;;;5.40;91.20;;;;;;5043222;28;20254;-75
2022/11/21 08:30:32;;;;;;;19.98;6.82;;;5.40;91.00;;;;;;5046503;28;20073;-77
2022/11/21 08:32:58;;;;;;;26.20;7.32;;;5.60;91.00;;;;;;5046649;28;20059;-76
2022/11/21 08:35:25;;;;;;;25.30;6.82;;;5.60;90.80;;;;;;5048928;28;20108;-76
2022/11/21 08:37:57;;;;;;;24.55;6.57;;;5.70;90.50;;;;;;5049029;28;20059;-77
2022/11/21 08:40:24;;;;;;;24.85;7.38;;;5.80;90.20;;;;;;5057354;28;22447;-76
2022/11/21 08:43:05;;;;;;;21.70;7.80;;;5.90;90.10;;;;;;5049722;28;20032;-76
2022/11/21 08:45:32;;;;;;;23.80;9.55;;;5.90;90.00;;;;;;5052345;28;20036;-78
2022/11/21 08:47:58;;;;;;;25.08;8.52;;;6.00;89.80;;;;;;5042359;28;20053;-76
2022/11/21 08:50:25;;;;;;;26.42;8.45;;;6.10;89.90;;;;;;5066817;28;20053;-76
2022/11/21 08:52:50;;;;;;;30.83;8.23;;;6.10;89.90;;;;;;5055775;28;20106;-76
2022/11/21 08:55:16;;;;;;;21.60;6.93;;;6.10;89.60;;;;;;5049252;28;20041;-78
2022/11/21 08:57:42;;;;;;;20.75;8.57;;;6.20;89.60;;;;;;5057433;28;20112;-77
2022/11/21 09:00:11;;;;;;;24.45;7.82;;;6.20;89.70;;;;;;5051711;28;20659;-79
2022/11/21 09:02:37;;;;;;;19.80;8.15;;;6.30;89.70;;;;;;5043960;28;20040;-78
2022/11/21 09:05:03;;;;;;;24.38;8.35;;;6.40;89.70;;;;;;5049663;28;20416;-78
2022/11/21 09:07:29;;;;;;;22.85;7.25;;;6.40;89.50;;;;;;5053255;28;20469;-79
2022/11/21 09:09:54;;;;;;;19.10;8.30;;;6.40;89.60;;;;;;5055720;28;20068;-79
2022/11/21 09:12:20;;;;;;;20.25;7.97;;;6.50;89.60;;;;;;5050889;28;20037;-79
2022/11/21 09:20:14;;;;;;;18.55;7.68;;;6.60;89.50;;;;;;5053515;28;20056;-82
2022/11/21 09:22:40;;;;;;;19.95;9.52;;;6.60;89.50;;;;;;5052708;28;20481;-83
2022/11/21 09:25:05;;;;;;;24.17;9.05;;;6.70;89.60;;;;;;5048452;28;20124;-82
2022/11/21 09:27:31;;;;;;;21.85;9.05;;;6.70;89.60;;;;;;5048302;28;20547;-84
2022/11/21 09:29:57;;;;;;;28.67;10.13;;;6.70;89.70;;;;;;5055596;28;20037;-84
2022/11/21 09:32:23;;;;;;;19.55;9.30;;;6.60;89.90;;;;;;5055859;28;20029;-84
2022/11/21 09:34:48;;;;;;;18.58;8.98;;;6.70;89.90;;;;;;5056143;28;20408;-80
2022/11/21 09:37:14;;;;;;;20.48;9.15;;;6.70;90.00;;;;;;5076256;28;20046;-78
2022/11/21 09:39:40;;;;;;;19.48;8.93;;;6.80;90.20;;;;;;5058715;28;20373;-84
2022/11/21 09:42:31;;;;;;;23.70;9.57;;;6.80;90.10;;;;;;5045496;28;20621;-84
2022/11/21 09:45:23;;;;;;;22.48;9.30;;;6.80;90.10;;;;;;5060796;28;20060;-84
2022/11/21 09:47:51;;;;;;;20.02;9.13;;;6.90;90.20;;;;;;5051147;28;20059;-83
2022/11/21 09:50:35;;;;;;;17.65;8.82;;;6.90;90.20;;;;;;5057206;28;20036;-83
2022/11/21 09:53:25;;;;;;;22.30;10.48;;;6.90;90.30;;;;;;5046667;28;20044;-84
2022/11/21 09:55:57;;;;;;;21.23;8.60;;;7.00;90.40;;;;;;5048968;28;20048;-84
2022/11/21 09:58:27;;;;;;;18.17;8.50;;;7.10;90.40;;;;;;5069198;28;20044;-79
2022/11/21 10:00:53;;;;;;;20.27;8.65;;;7.10;90.40;;;;;;5051718;28;20051;-84
2022/11/21 10:03:22;;;;;;;19.00;8.60;;;7.10;90.40;;;;;;5048101;28;20028;-79
2022/11/21 10:05:57;;;;;;;23.88;9.57;;;7.20;90.10;;;;;;5051321;28;20933;-82
2022/11/21 10:08:34;;;;;;;24.95;11.70;;;7.40;90.10;;;;;;5054526;28;20041;-83
2022/11/21 10:11:20;;;;;;;21.73;12.45;;;7.30;89.70;;;;;;5062335;28;20036;-83
2022/11/21 10:14:01;;;;;;;21.65;11.77;;;7.30;89.80;;;;;;5052731;28;20370;-82
2022/11/21 10:16:40;;;;;;;24.50;12.75;;;7.30;89.90;;;;;;5050720;28;20112;-83
2022/11/21 10:19:53;;;;;;;22.77;12.88;;;7.40;89.90;;;;;;5051975;28;20207;-84
2022/11/21 10:23:00;;;;;;;23.58;13.20;;;7.40;89.60;;;;;;5033947;28;20431;-81
2022/11/21 10:25:35;;;;;;;22.30;13.75;;;7.40;89.70;;;;;;5009567;28;20057;-83
2022/11/21 10:28:19;;;;;;;23.50;13.05;;;7.40;89.70;;;;;;5005584;28;20517;-82
2022/11/21 10:30:46;;;;;;;23.30;11.93;;;7.50;89.60;;;;;;5042899;28;20044;-85
2022/11/21 10:33:19;;;;;;;20.83;12.07;;;7.40;89.40;;;;;;5050424;28;20112;-85
2022/11/21 10:35:52;;;;;;;22.95;12.20;;;7.40;89.60;;;;;;5053383;28;20041;-85
2022/11/21 10:38:23;;;;;;;18.77;11.73;;;7.40;89.80;;;;;;5047941;28;20481;-84
2022/11/21 10:41:21;;;;;;;21.92;11.52;;;7.50;89.90;;;;;;5055838;28;20051;-85
2022/11/21 10:46:55;;;;;;;18.85;11.52;;;7.40;90.00;;;;;;5044622;28;20047;-81
2022/11/21 10:49:21;;;;;;;19.13;12.20;;;7.40;90.40;;;;;;5054208;28;20041;-82
2022/11/21 10:52:05;;;;;;;19.80;11.80;;;7.40;90.60;;;;;;5053671;28;20043;-78
2022/11/21 10:54:31;;;;;;;17.65;11.30;;;7.40;90.60;;;;;;5051529;28;20033;-83
2022/11/21 10:57:10;;;;;;;19.17;11.50;;;7.40;90.70;;;;;;5049212;28;20053;-81
2022/11/21 10:59:36;;;;;;;16.88;11.07;;;7.40;90.60;;;;;;5048952;28;20072;-84
2022/11/21 11:02:22;;;;;;;21.95;12.38;;;7.50;90.70;;;;;;5044040;28;20061;-83
2022/11/21 11:04:47;;;;;;;17.95;11.82;;;7.50;90.60;;;;;;5071989;28;20044;-80
2022/11/21 11:07:22;;;;;;;19.35;12.25;;;7.60;90.60;;;;;;5046210;28;20040;-83
2022/11/21 11:09:49;;;;;;;21.50;12.32;;;7.60;90.60;;;;;;5051722;28;20132;-83
2022/11/21 11:15:26;;;;;;;18.00;11.65;;;7.60;90.60;;;;;;4994611;28;20052;-84
2022/11/21 11:17:55;;;;;;;20.38;11.75;;;7.60;90.70;;;;;;5042885;28;20491;-82
2022/11/21 11:20:39;;;;;;;19.90;11.75;;;7.60;90.70;;;;;;5050610;28;20086;-82
2022/11/21 11:23:24;;;;;;;19.33;11.85;;;7.60;90.60;;;;;;5050725;28;20571;-80
2022/11/21 11:25:52;;;;;;;20.58;11.75;;;7.60;90.60;;;;;;5056727;28;20086;-83
2022/11/21 11:28:18;;;;;;;18.50;11.50;;;7.60;90.80;;;;;;5055468;28;20473;-81
2022/11/21 11:30:46;;;;;;;22.10;12.20;;;7.60;91.00;;;;;;5050145;28;20114;-82
2022/11/21 11:33:38;;;;;;;19.40;11.77;;;7.60;91.20;;;;;;5047211;28;20512;-81
2022/11/21 11:36:43;;;;;;;23.02;12.55;;;7.70;91.30;;;;;;5048759;28;20036;-83
2022/11/21 11:39:39;;;;;;;23.23;11.88;;;7.60;91.40;;;;;;5058728;28;20041;-83
2022/11/21 11:48:09;;;;;;;24.02;11.82;;;7.70;91.80;;;;;;5045275;28;20088;-83
2022/11/21 11:50:50;;;;;;;25.08;13.50;;;7.70;91.90;;;;;;5045321;28;20048;-83
2022/11/21 11:53:37;;;;;;;23.58;12.32;;;7.80;91.80;;;;;;5046198;28;20171;-82
2022/11/21 11:56:16;;;;;;;22.88;12.38;;;7.80;91.90;;;;;;5045571;28;20045;-82
2022/11/21 11:59:08;;;;;;;22.73;11.93;;;7.80;91.90;;;;;;5046103;28;20037;-82
2022/11/21 12:01:59;;;;;;;24.45;12.93;;;7.90;92.00;;;;;;5046166;28;20469;-82
2022/11/21 12:04:32;;;;;;;30.95;13.55;;;8.00;91.90;;;;;;5060868;28;20036;-82
2022/11/21 12:07:02;;;;;;;21.83;11.52;;;8.00;91.90;;;;;;5042280;28;20489;-82
2022/11/21 12:09:33;;;;;;;25.48;12.95;;;8.00;91.90;;;;;;5054641;28;20506;-82
2022/11/21 12:12:15;;;;;;;26.70;13.25;;;8.10;91.90;;;;;;5053596;28;20102;-83
2022/11/21 12:18:15;;;;;;;28.33;14.48;;;8.10;92.00;;;;;;5058001;28;20059;-80
2022/11/21 12:21:15;;;;;;;31.77;16.05;;;8.20;91.90;;;;;;5062071;28;20514;-83
2022/11/21 12:23:43;;;;;;;27.65;16.13;;;8.20;91.70;;;;;;5048835;28;20090;-83
2022/11/21 12:26:40;;;;;;;36.45;17.42;;;8.20;91.70;;;;;;5056540;28;20084;-81
2022/11/21 12:29:35;;;;;;;31.48;16.17;;;8.20;91.80;;;;;;5051093;28;20037;-82
2022/11/21 12:32:12;;;;;;;28.95;18.33;;;8.30;91.80;;;;;;5068796;28;20045;-80
2022/11/21 12:35:09;;;;;;;29.00;16.25;;;8.30;91.70;;;;;;5072717;28;20118;-81
2022/11/21 12:37:58;;;;;;;35.40;18.40;;;8.30;91.70;;;;;;5053158;28;20634;-82
2022/11/21 12:40:51;;;;;;;31.25;17.42;;;8.40;91.50;;;;;;5022100;28;20040;-79
2022/11/21 12:43:22;;;;;;;33.03;16.27;;;8.40;91.40;;;;;;5038229;28;20094;-82
2022/11/21 12:46:09;;;;;;;29.00;15.32;;;8.40;91.40;;;;;;5049375;28;20059;-84
2022/11/21 12:55:36;;;;;;;25.92;12.20;;;8.50;91.20;;;;;;5048397;28;20047;-82
2022/11/21 12:58:38;;;;;;;29.63;13.00;;;8.60;91.10;;;;;;5049992;28;20037;-85
2022/11/21 13:01:26;;;;;;;25.45;12.23;;;8.60;90.90;;;;;;5046189;28;20132;-86
2022/11/21 13:04:15;;;;;;;24.63;12.18;;;8.60;90.80;;;;;;5043373;28;20037;-83
2022/11/21 13:06:43;;;;;;;25.83;11.75;;;8.60;90.70;;;;;;5058195;28;20056;-84
2022/11/21 13:09:14;;;;;;;27.27;10.35;;;8.60;90.60;;;;;;5048471;28;20496;-85
2022/11/21 13:11:58;;;;;;;29.85;9.75;;;8.70;90.40;;;;;;5045099;28;20052;-81
2022/11/21 13:14:38;;;;;;;21.60;8.43;;;8.80;90.20;;;;;;5044365;28;20528;-85
2022/11/21 13:17:16;;;;;;;19.75;8.45;;;8.80;90.10;;;;;;5039287;28;20059;-83
2022/11/21 13:19:49;;;;;;;19.15;8.00;;;8.80;89.80;;;;;;5045982;28;21190;-85
2022/11/21 13:22:36;;;;;;;24.95;8.38;;;8.90;89.80;;;;;;5050366;28;20673;-82
2022/11/21 13:25:08;;;;;;;21.17;7.97;;;8.80;89.50;;;;;;5049463;28;20025;-86
2022/11/21 13:27:41;;;;;;;24.58;7.50;;;8.90;89.50;;;;;;5053807;28;20476;-85
2022/11/21 13:30:07;;;;;;;23.95;7.55;;;8.90;89.40;;;;;;5047244;28;20056;-86
2022/11/21 13:32:52;;;;;;;19.55;7.88;;;8.90;89.40;;;;;;5047628;28;20039;-86
2022/11/21 13:35:20;;;;;;;;;;;8.90;89.30;;;;;;5053527;28;20440;-83